sensor_id;sensor_type;location;lat;lon;timestamp;pressure;altitude;pressure_sealevel;temperature;humidity
60920;BME280;59039;52.108;19.942;2022-11-11T00:01:34;101900.46;;;7.74;86.40
60920;BME280;59039;52.108;19.942;2022-11-11T00:03:59;101898.39;;;7.75;86.22
60920;BME280;59039;52.108;19.942;2022-11-11T00:06:25;101895.23;;;7.77;86.26
60920;BME280;59039;52.108;19.942;2022-11-11T00:08:50;101896.80;;;7.77;86.34
60920;BME280;59039;52.108;19.942;2022-11-11T00:11:16;101891.30;;;7.79;86.31
60920;BME280;59039;52.108;19.942;2022-11-11T00:13:42;101888.85;;;7.80;86.36
60920;BME280;59039;52.108;19.942;2022-11-11T00:16:10;101893.61;;;7.82;86.44
60920;BME280;59039;52.108;19.942;2022-11-11T00:18:37;101891.55;;;7.83;86.45
60920;BME280;59039;52.108;19.942;2022-11-11T00:21:03;101894.70;;;7.84;86.39
60920;BME280;59039;52.108;19.942;2022-11-11T00:23:28;101894.42;;;7.86;86.42
60920;BME280;59039;52.108;19.942;2022-11-11T00:25:53;101895.23;;;7.87;86.49
60920;BME280;59039;52.108;19.942;2022-11-11T00:28:18;101893.33;;;7.89;86.38
60920;BME280;59039;52.108;19.942;2022-11-11T00:30:44;101892.15;;;7.90;86.40
60920;BME280;59039;52.108;19.942;2022-11-11T00:33:09;101888.67;;;7.91;86.25
60920;BME280;59039;52.108;19.942;2022-11-11T00:35:34;101887.23;;;7.91;86.24
60920;BME280;59039;52.108;19.942;2022-11-11T00:38:10;101883.91;;;7.92;86.09
60920;BME280;59039;52.108;19.942;2022-11-11T00:40:36;101881.15;;;7.93;86.25
60920;BME280;59039;52.108;19.942;2022-11-11T00:43:01;101877.37;;;7.93;86.06
60920;BME280;59039;52.108;19.942;2022-11-11T00:45:27;101886.20;;;7.93;86.00
60920;BME280;59039;52.108;19.942;2022-11-11T00:47:52;101889.80;;;7.93;85.83
60920;BME280;59039;52.108;19.942;2022-11-11T00:50:21;101891.27;;;7.92;85.83
60920;BME280;59039;52.108;19.942;2022-11-11T00:52:46;101888.78;;;7.92;85.80
60920;BME280;59039;52.108;19.942;2022-11-11T00:55:12;101891.34;;;7.91;85.78
60920;BME280;59039;52.108;19.942;2022-11-11T00:57:38;101893.34;;;7.91;85.75
60920;BME280;59039;52.108;19.942;2022-11-11T01:00:04;101894.27;;;7.91;85.65
60920;BME280;59039;52.108;19.942;2022-11-11T01:02:29;101892.12;;;7.91;85.68
60920;BME280;59039;52.108;19.942;2022-11-11T01:04:54;101885.83;;;7.90;85.63
60920;BME280;59039;52.108;19.942;2022-11-11T01:07:20;101887.84;;;7.90;85.68
60920;BME280;59039;52.108;19.942;2022-11-11T01:09:45;101889.45;;;7.90;85.63
60920;BME280;59039;52.108;19.942;2022-11-11T01:12:10;101892.04;;;7.89;85.55
60920;BME280;59039;52.108;19.942;2022-11-11T01:14:35;101892.79;;;7.89;85.53
60920;BME280;59039;52.108;19.942;2022-11-11T01:17:00;101890.30;;;7.88;85.48
60920;BME280;59039;52.108;19.942;2022-11-11T01:19:26;101885.44;;;7.88;85.47
60920;BME280;59039;52.108;19.942;2022-11-11T01:21:51;101881.75;;;7.87;85.41
60920;BME280;59039;52.108;19.942;2022-11-11T01:24:16;101879.52;;;7.85;85.41
60920;BME280;59039;52.108;19.942;2022-11-11T01:26:41;101878.02;;;7.83;85.44
60920;BME280;59039;52.108;19.942;2022-11-11T01:29:06;101877.02;;;7.82;85.40
60920;BME280;59039;52.108;19.942;2022-11-11T01:31:32;101877.98;;;7.81;85.34
60920;BME280;59039;52.108;19.942;2022-11-11T01:33:57;101876.81;;;7.80;85.16
60920;BME280;59039;52.108;19.942;2022-11-11T01:36:24;101875.28;;;7.78;85.17
60920;BME280;59039;52.108;19.942;2022-11-11T01:38:52;101871.81;;;7.76;85.19
60920;BME280;59039;52.108;19.942;2022-11-11T01:41:20;101875.20;;;7.73;85.23
60920;BME280;59039;52.108;19.942;2022-11-11T01:43:46;101873.72;;;7.71;85.25
60920;BME280;59039;52.108;19.942;2022-11-11T01:46:30;101875.12;;;7.69;85.31
60920;BME280;59039;52.108;19.942;2022-11-11T01:49:13;101869.98;;;7.68;85.32
60920;BME280;59039;52.108;19.942;2022-11-11T01:51:46;101867.15;;;7.67;85.48
60920;BME280;59039;52.108;19.942;2022-11-11T01:54:18;101868.30;;;7.66;85.46
60920;BME280;59039;52.108;19.942;2022-11-11T01:56:48;101873.33;;;7.64;85.61
60920;BME280;59039;52.108;19.942;2022-11-11T01:59:16;101872.67;;;7.63;85.58
60920;BME280;59039;52.108;19.942;2022-11-11T02:01:42;101874.66;;;7.63;85.58
60920;BME280;59039;52.108;19.942;2022-11-11T02:04:09;101872.02;;;7.62;85.55
60920;BME280;59039;52.108;19.942;2022-11-11T02:06:35;101871.02;;;7.61;85.58
60920;BME280;59039;52.108;19.942;2022-11-11T02:09:03;101862.60;;;7.60;85.62
60920;BME280;59039;52.108;19.942;2022-11-11T02:11:30;101860.89;;;7.58;85.70
60920;BME280;59039;52.108;19.942;2022-11-11T02:13:56;101861.80;;;7.58;85.70
60920;BME280;59039;52.108;19.942;2022-11-11T02:16:22;101865.30;;;7.57;85.77
60920;BME280;59039;52.108;19.942;2022-11-11T02:18:48;101867.70;;;7.56;85.69
60920;BME280;59039;52.108;19.942;2022-11-11T02:21:27;101869.54;;;7.56;85.75
60920;BME280;59039;52.108;19.942;2022-11-11T02:24:17;101871.39;;;7.55;85.86
60920;BME280;59039;52.108;19.942;2022-11-11T02:26:45;101873.10;;;7.53;85.81
60920;BME280;59039;52.108;19.942;2022-11-11T02:29:17;101877.48;;;7.52;85.89
60920;BME280;59039;52.108;19.942;2022-11-11T02:31:43;101882.45;;;7.51;85.88
60920;BME280;59039;52.108;19.942;2022-11-11T02:34:08;101889.73;;;7.50;85.96
60920;BME280;59039;52.108;19.942;2022-11-11T02:36:34;101893.91;;;7.49;85.94
60920;BME280;59039;52.108;19.942;2022-11-11T02:39:00;101897.21;;;7.49;85.95
60920;BME280;59039;52.108;19.942;2022-11-11T02:41:25;101898.02;;;7.47;85.99
60920;BME280;59039;52.108;19.942;2022-11-11T02:43:50;101894.45;;;7.47;86.10
60920;BME280;59039;52.108;19.942;2022-11-11T02:46:15;101893.03;;;7.46;85.97
60920;BME280;59039;52.108;19.942;2022-11-11T02:48:40;101886.92;;;7.46;85.95
60920;BME280;59039;52.108;19.942;2022-11-11T02:51:06;101890.42;;;7.45;86.04
60920;BME280;59039;52.108;19.942;2022-11-11T02:53:31;101893.15;;;7.44;86.02
60920;BME280;59039;52.108;19.942;2022-11-11T02:55:56;101887.77;;;7.44;86.11
60920;BME280;59039;52.108;19.942;2022-11-11T02:58:22;101878.60;;;7.44;86.11
60920;BME280;59039;52.108;19.942;2022-11-11T03:00:47;101873.41;;;7.43;86.13
60920;BME280;59039;52.108;19.942;2022-11-11T03:03:12;101871.38;;;7.44;86.28
60920;BME280;59039;52.108;19.942;2022-11-11T03:05:37;101875.38;;;7.43;86.22
60920;BME280;59039;52.108;19.942;2022-11-11T03:08:03;101879.73;;;7.43;86.18
60920;BME280;59039;52.108;19.942;2022-11-11T03:10:28;101879.05;;;7.42;86.20
60920;BME280;59039;52.108;19.942;2022-11-11T03:12:53;101879.63;;;7.42;86.35
60920;BME280;59039;52.108;19.942;2022-11-11T03:15:18;101879.60;;;7.42;86.35
60920;BME280;59039;52.108;19.942;2022-11-11T03:17:43;101888.23;;;7.42;86.30
60920;BME280;59039;52.108;19.942;2022-11-11T03:20:10;101894.70;;;7.43;86.43
60920;BME280;59039;52.108;19.942;2022-11-11T03:22:35;101900.46;;;7.43;86.49
60920;BME280;59039;52.108;19.942;2022-11-11T03:25:01;101900.23;;;7.44;86.58
60920;BME280;59039;52.108;19.942;2022-11-11T03:27:26;101900.37;;;7.44;86.58
60920;BME280;59039;52.108;19.942;2022-11-11T03:29:51;101900.33;;;7.45;86.65
60920;BME280;59039;52.108;19.942;2022-11-11T03:32:16;101899.73;;;7.46;86.74
60920;BME280;59039;52.108;19.942;2022-11-11T03:34:41;101896.95;;;7.47;86.52
60920;BME280;59039;52.108;19.942;2022-11-11T03:37:09;101900.39;;;7.47;86.49
60920;BME280;59039;52.108;19.942;2022-11-11T03:39:34;101901.86;;;7.46;86.50
60920;BME280;59039;52.108;19.942;2022-11-11T03:41:59;101904.23;;;7.46;86.61
60920;BME280;59039;52.108;19.942;2022-11-11T03:44:24;101903.73;;;7.45;86.58
60920;BME280;59039;52.108;19.942;2022-11-11T03:46:49;101910.04;;;7.46;86.59
60920;BME280;59039;52.108;19.942;2022-11-11T03:49:15;101912.73;;;7.46;86.65
60920;BME280;59039;52.108;19.942;2022-11-11T03:51:40;101920.61;;;7.47;86.54
60920;BME280;59039;52.108;19.942;2022-11-11T03:54:05;101928.39;;;7.46;86.46
60920;BME280;59039;52.108;19.942;2022-11-11T03:56:30;101923.91;;;7.46;86.51
60920;BME280;59039;52.108;19.942;2022-11-11T03:58:55;101930.23;;;7.46;86.38
60920;BME280;59039;52.108;19.942;2022-11-11T04:01:20;101931.38;;;7.45;86.38
60920;BME280;59039;52.108;19.942;2022-11-11T04:03:46;101929.25;;;7.44;86.41
60920;BME280;59039;52.108;19.942;2022-11-11T04:06:11;101923.67;;;7.44;86.52
60920;BME280;59039;52.108;19.942;2022-11-11T04:08:36;101916.85;;;7.43;86.60
60920;BME280;59039;52.108;19.942;2022-11-11T04:11:14;101922.95;;;7.44;86.56
60920;BME280;59039;52.108;19.942;2022-11-11T04:13:42;101924.55;;;7.44;86.54
60920;BME280;59039;52.108;19.942;2022-11-11T04:16:10;101924.19;;;7.44;86.64
60920;BME280;59039;52.108;19.942;2022-11-11T04:18:36;101924.88;;;7.45;86.70
60920;BME280;59039;52.108;19.942;2022-11-11T04:21:01;101918.91;;;7.45;86.76
60920;BME280;59039;52.108;19.942;2022-11-11T04:23:27;101919.23;;;7.46;86.72
60920;BME280;59039;52.108;19.942;2022-11-11T04:25:52;101928.54;;;7.46;86.75
60920;BME280;59039;52.108;19.942;2022-11-11T04:28:17;101936.80;;;7.47;86.82
60920;BME280;59039;52.108;19.942;2022-11-11T04:30:43;101934.92;;;7.48;86.67
60920;BME280;59039;52.108;19.942;2022-11-11T04:33:08;101945.71;;;7.49;86.91
60920;BME280;59039;52.108;19.942;2022-11-11T04:35:34;101949.42;;;7.50;86.84
60920;BME280;59039;52.108;19.942;2022-11-11T04:37:59;101948.31;;;7.50;86.85
60920;BME280;59039;52.108;19.942;2022-11-11T04:40:24;101953.51;;;7.51;86.89
60920;BME280;59039;52.108;19.942;2022-11-11T04:42:52;101952.33;;;7.53;86.86
60920;BME280;59039;52.108;19.942;2022-11-11T04:45:17;101953.17;;;7.53;87.12
60920;BME280;59039;52.108;19.942;2022-11-11T04:48:06;101950.86;;;7.56;87.12
60920;BME280;59039;52.108;19.942;2022-11-11T04:50:34;101948.77;;;7.58;87.25
60920;BME280;59039;52.108;19.942;2022-11-11T04:53:01;101948.29;;;7.60;87.20
60920;BME280;59039;52.108;19.942;2022-11-11T04:55:27;101949.96;;;7.61;87.21
60920;BME280;59039;52.108;19.942;2022-11-11T04:57:52;101949.67;;;7.63;87.22
60920;BME280;59039;52.108;19.942;2022-11-11T05:00:18;101950.68;;;7.64;87.20
60920;BME280;59039;52.108;19.942;2022-11-11T05:02:44;101948.80;;;7.66;87.24
60920;BME280;59039;52.108;19.942;2022-11-11T05:05:10;101946.10;;;7.68;87.12
60920;BME280;59039;52.108;19.942;2022-11-11T05:07:35;101941.66;;;7.70;87.17
60920;BME280;59039;52.108;19.942;2022-11-11T05:10:00;101939.79;;;7.71;87.14
60920;BME280;59039;52.108;19.942;2022-11-11T05:12:25;101940.94;;;7.73;87.18
60920;BME280;59039;52.108;19.942;2022-11-11T05:14:50;101943.23;;;7.73;87.22
60920;BME280;59039;52.108;19.942;2022-11-11T05:17:16;101937.17;;;7.75;87.18
60920;BME280;59039;52.108;19.942;2022-11-11T05:19:41;101929.19;;;7.76;87.21
60920;BME280;59039;52.108;19.942;2022-11-11T05:22:35;101926.58;;;7.77;87.16
60920;BME280;59039;52.108;19.942;2022-11-11T05:25:01;101926.66;;;7.79;87.32
60920;BME280;59039;52.108;19.942;2022-11-11T05:27:26;101927.33;;;7.80;87.26
60920;BME280;59039;52.108;19.942;2022-11-11T05:29:51;101924.36;;;7.81;87.11
60920;BME280;59039;52.108;19.942;2022-11-11T05:32:18;101925.71;;;7.82;87.15
60920;BME280;59039;52.108;19.942;2022-11-11T05:34:44;101927.44;;;7.83;87.27
60920;BME280;59039;52.108;19.942;2022-11-11T05:37:10;101923.58;;;7.85;87.21
60920;BME280;59039;52.108;19.942;2022-11-11T05:39:35;101922.58;;;7.86;87.17
60920;BME280;59039;52.108;19.942;2022-11-11T05:42:00;101924.50;;;7.87;87.06
60920;BME280;59039;52.108;19.942;2022-11-11T05:44:25;101924.76;;;7.88;87.14
60920;BME280;59039;52.108;19.942;2022-11-11T05:46:50;101930.13;;;7.89;87.06
60920;BME280;59039;52.108;19.942;2022-11-11T05:49:16;101934.60;;;7.90;86.97
60920;BME280;59039;52.108;19.942;2022-11-11T05:51:45;101935.13;;;7.90;87.02
60920;BME280;59039;52.108;19.942;2022-11-11T05:54:11;101936.51;;;7.91;86.92
60920;BME280;59039;52.108;19.942;2022-11-11T05:56:36;101939.70;;;7.92;87.00
60920;BME280;59039;52.108;19.942;2022-11-11T05:59:01;101942.39;;;7.92;87.08
60920;BME280;59039;52.108;19.942;2022-11-11T06:01:27;101938.52;;;7.93;87.00
60920;BME280;59039;52.108;19.942;2022-11-11T06:03:52;101939.42;;;7.93;87.00
60920;BME280;59039;52.108;19.942;2022-11-11T06:06:17;101930.86;;;7.94;87.01
60920;BME280;59039;52.108;19.942;2022-11-11T06:08:42;101921.79;;;7.95;87.09
60920;BME280;59039;52.108;19.942;2022-11-11T06:11:07;101922.57;;;7.97;87.08
60920;BME280;59039;52.108;19.942;2022-11-11T06:13:33;101915.23;;;7.99;86.97
60920;BME280;59039;52.108;19.942;2022-11-11T06:15:59;101909.59;;;8.00;87.12
60920;BME280;59039;52.108;19.942;2022-11-11T06:18:24;101909.59;;;8.03;87.02
60920;BME280;59039;52.108;19.942;2022-11-11T06:20:57;101909.72;;;8.03;87.02
60920;BME280;59039;52.108;19.942;2022-11-11T06:23:23;101922.42;;;8.05;86.98
60920;BME280;59039;52.108;19.942;2022-11-11T06:25:49;101925.44;;;8.06;86.96
60920;BME280;59039;52.108;19.942;2022-11-11T06:28:16;101929.16;;;8.06;86.90
60920;BME280;59039;52.108;19.942;2022-11-11T06:30:42;101932.48;;;8.08;86.92
60920;BME280;59039;52.108;19.942;2022-11-11T06:33:07;101930.83;;;8.09;86.87
60920;BME280;59039;52.108;19.942;2022-11-11T06:35:33;101929.67;;;8.10;86.92
60920;BME280;59039;52.108;19.942;2022-11-11T06:37:58;101933.17;;;8.11;86.94
60920;BME280;59039;52.108;19.942;2022-11-11T06:40:23;101938.10;;;8.13;86.91
60920;BME280;59039;52.108;19.942;2022-11-11T06:42:49;101935.52;;;8.14;86.87
60920;BME280;59039;52.108;19.942;2022-11-11T06:45:14;101926.59;;;8.15;86.87
60920;BME280;59039;52.108;19.942;2022-11-11T06:47:41;101924.16;;;8.17;86.93
60920;BME280;59039;52.108;19.942;2022-11-11T06:50:07;101927.96;;;8.19;86.92
60920;BME280;59039;52.108;19.942;2022-11-11T06:52:32;101931.48;;;8.21;86.90
60920;BME280;59039;52.108;19.942;2022-11-11T06:54:57;101940.39;;;8.22;86.94
60920;BME280;59039;52.108;19.942;2022-11-11T06:57:22;101948.55;;;8.24;86.94
60920;BME280;59039;52.108;19.942;2022-11-11T06:59:47;101948.98;;;8.27;86.79
60920;BME280;59039;52.108;19.942;2022-11-11T07:02:13;101941.21;;;8.29;86.89
60920;BME280;59039;52.108;19.942;2022-11-11T07:04:38;101945.25;;;8.31;86.77
60920;BME280;59039;52.108;19.942;2022-11-11T07:07:03;101942.23;;;8.33;86.87
60920;BME280;59039;52.108;19.942;2022-11-11T07:09:28;101948.92;;;8.35;86.87
60920;BME280;59039;52.108;19.942;2022-11-11T07:11:53;101950.70;;;8.39;86.78
60920;BME280;59039;52.108;19.942;2022-11-11T07:14:19;101945.86;;;8.41;86.73
60920;BME280;59039;52.108;19.942;2022-11-11T07:16:44;101940.58;;;8.44;86.75
60920;BME280;59039;52.108;19.942;2022-11-11T07:19:09;101938.41;;;8.47;86.75
60920;BME280;59039;52.108;19.942;2022-11-11T07:21:34;101936.46;;;8.49;86.65
60920;BME280;59039;52.108;19.942;2022-11-11T07:23:59;101924.07;;;8.51;86.64
60920;BME280;59039;52.108;19.942;2022-11-11T07:26:24;101923.33;;;8.53;86.51
60920;BME280;59039;52.108;19.942;2022-11-11T07:28:50;101924.41;;;8.56;86.47
60920;BME280;59039;52.108;19.942;2022-11-11T07:31:15;101930.71;;;8.59;86.47
60920;BME280;59039;52.108;19.942;2022-11-11T07:33:40;101935.42;;;8.62;86.46
60920;BME280;59039;52.108;19.942;2022-11-11T07:36:05;101927.68;;;8.64;86.44
60920;BME280;59039;52.108;19.942;2022-11-11T07:38:30;101922.27;;;8.67;86.40
60920;BME280;59039;52.108;19.942;2022-11-11T07:40:55;101929.34;;;8.69;86.34
60920;BME280;59039;52.108;19.942;2022-11-11T07:43:21;101930.01;;;8.72;86.33
60920;BME280;59039;52.108;19.942;2022-11-11T07:45:46;101930.31;;;8.75;86.43
60920;BME280;59039;52.108;19.942;2022-11-11T07:48:11;101932.80;;;8.79;86.23
60920;BME280;59039;52.108;19.942;2022-11-11T07:50:36;101929.71;;;8.82;86.13
60920;BME280;59039;52.108;19.942;2022-11-11T07:53:01;101932.17;;;8.86;86.18
60920;BME280;59039;52.108;19.942;2022-11-11T07:55:26;101931.57;;;8.89;86.22
60920;BME280;59039;52.108;19.942;2022-11-11T07:57:52;101933.52;;;8.92;86.15
60920;BME280;59039;52.108;19.942;2022-11-11T08:00:17;101930.77;;;8.95;86.02
60920;BME280;59039;52.108;19.942;2022-11-11T08:02:46;101938.51;;;8.98;86.07
60920;BME280;59039;52.108;19.942;2022-11-11T08:05:12;101946.20;;;9.02;85.93
60920;BME280;59039;52.108;19.942;2022-11-11T08:07:37;101953.13;;;9.06;85.94
60920;BME280;59039;52.108;19.942;2022-11-11T08:10:03;101957.94;;;9.10;85.84
60920;BME280;59039;52.108;19.942;2022-11-11T08:12:28;101959.42;;;9.15;85.92
60920;BME280;59039;52.108;19.942;2022-11-11T08:14:53;101955.70;;;9.19;85.86
60920;BME280;59039;52.108;19.942;2022-11-11T08:17:18;101956.67;;;9.23;85.74
60920;BME280;59039;52.108;19.942;2022-11-11T08:19:43;101957.65;;;9.27;85.67
60920;BME280;59039;52.108;19.942;2022-11-11T08:22:09;101960.45;;;9.31;85.66
60920;BME280;59039;52.108;19.942;2022-11-11T08:24:34;101955.11;;;9.35;85.64
60920;BME280;59039;52.108;19.942;2022-11-11T08:26:59;101954.47;;;9.39;85.40
60920;BME280;59039;52.108;19.942;2022-11-11T08:29:24;101957.97;;;9.43;85.42
60920;BME280;59039;52.108;19.942;2022-11-11T08:31:51;101957.66;;;9.47;85.30
60920;BME280;59039;52.108;19.942;2022-11-11T08:34:16;101958.23;;;9.52;85.25
60920;BME280;59039;52.108;19.942;2022-11-11T08:36:42;101956.97;;;9.57;85.42
60920;BME280;59039;52.108;19.942;2022-11-11T08:39:07;101959.92;;;9.61;85.30
60920;BME280;59039;52.108;19.942;2022-11-11T08:41:32;101965.34;;;9.66;85.26
60920;BME280;59039;52.108;19.942;2022-11-11T08:43:57;101961.58;;;9.71;85.13
60920;BME280;59039;52.108;19.942;2022-11-11T08:46:23;101963.89;;;9.76;85.10
60920;BME280;59039;52.108;19.942;2022-11-11T08:48:48;101965.02;;;9.81;84.88
60920;BME280;59039;52.108;19.942;2022-11-11T08:51:13;101963.29;;;9.85;84.85
60920;BME280;59039;52.108;19.942;2022-11-11T08:53:39;101968.23;;;9.89;84.77
60920;BME280;59039;52.108;19.942;2022-11-11T08:56:04;101971.59;;;9.92;84.68
60920;BME280;59039;52.108;19.942;2022-11-11T08:58:30;101964.05;;;9.96;84.66
60920;BME280;59039;52.108;19.942;2022-11-11T09:00:55;101964.58;;;9.99;84.39
60920;BME280;59039;52.108;19.942;2022-11-11T09:03:21;101965.80;;;10.02;84.19
60920;BME280;59039;52.108;19.942;2022-11-11T09:05:46;101976.20;;;10.06;83.91
60920;BME280;59039;52.108;19.942;2022-11-11T09:08:12;101980.46;;;10.10;83.87
60920;BME280;59039;52.108;19.942;2022-11-11T09:10:38;101981.90;;;10.12;83.59
60920;BME280;59039;52.108;19.942;2022-11-11T09:13:04;101986.16;;;10.16;83.19
60920;BME280;59039;52.108;19.942;2022-11-11T09:15:30;101984.30;;;10.19;83.39
60920;BME280;59039;52.108;19.942;2022-11-11T09:17:56;101975.89;;;10.22;83.44
60920;BME280;59039;52.108;19.942;2022-11-11T09:20:21;101969.51;;;10.25;83.12
60920;BME280;59039;52.108;19.942;2022-11-11T09:22:48;101973.32;;;10.28;83.21
60920;BME280;59039;52.108;19.942;2022-11-11T09:25:15;101971.95;;;10.30;82.95
60920;BME280;59039;52.108;19.942;2022-11-11T09:27:41;101969.91;;;10.32;83.08
60920;BME280;59039;52.108;19.942;2022-11-11T09:30:07;101960.09;;;10.36;83.11
60920;BME280;59039;52.108;19.942;2022-11-11T09:32:33;101959.10;;;10.36;82.88
60920;BME280;59039;52.108;19.942;2022-11-11T09:34:58;101951.77;;;10.37;82.98
60920;BME280;59039;52.108;19.942;2022-11-11T09:37:23;101953.05;;;10.40;82.88
60920;BME280;59039;52.108;19.942;2022-11-11T09:39:49;101958.20;;;10.41;82.91
60920;BME280;59039;52.108;19.942;2022-11-11T09:42:37;101958.34;;;10.42;82.72
60920;BME280;59039;52.108;19.942;2022-11-11T09:45:15;101951.73;;;10.43;82.18
60920;BME280;59039;52.108;19.942;2022-11-11T09:48:07;101944.17;;;10.44;82.31
60920;BME280;59039;52.108;19.942;2022-11-11T09:50:42;101940.93;;;10.47;82.06
60920;BME280;59039;52.108;19.942;2022-11-11T09:53:24;101939.93;;;10.48;82.29
60920;BME280;59039;52.108;19.942;2022-11-11T09:56:11;101949.38;;;10.50;81.84
60920;BME280;59039;52.108;19.942;2022-11-11T09:58:43;101949.92;;;10.52;81.96
60920;BME280;59039;52.108;19.942;2022-11-11T10:03:50;101942.77;;;10.56;81.98
60920;BME280;59039;52.108;19.942;2022-11-11T10:06:21;101943.42;;;10.57;82.00
60920;BME280;59039;52.108;19.942;2022-11-11T10:09:02;101946.44;;;10.58;81.91
60920;BME280;59039;52.108;19.942;2022-11-11T10:11:56;101939.03;;;10.60;81.91
60920;BME280;59039;52.108;19.942;2022-11-11T10:14:33;101927.00;;;10.60;81.92
60920;BME280;59039;52.108;19.942;2022-11-11T10:17:30;101924.73;;;10.62;81.69
60920;BME280;59039;52.108;19.942;2022-11-11T10:20:15;101917.02;;;10.63;81.68
60920;BME280;59039;52.108;19.942;2022-11-11T10:22:44;101921.65;;;10.64;81.81
60920;BME280;59039;52.108;19.942;2022-11-11T10:27:40;101913.41;;;10.65;81.20
60920;BME280;59039;52.108;19.942;2022-11-11T10:30:17;101910.19;;;10.67;81.58
60920;BME280;59039;52.108;19.942;2022-11-11T10:32:51;101912.52;;;10.68;81.21
60920;BME280;59039;52.108;19.942;2022-11-11T10:35:21;101911.08;;;10.69;81.46
60920;BME280;59039;52.108;19.942;2022-11-11T10:37:55;101911.39;;;10.70;81.38
60920;BME280;59039;52.108;19.942;2022-11-11T10:40:51;101913.91;;;10.71;81.32
60920;BME280;59039;52.108;19.942;2022-11-11T10:45:50;101910.68;;;10.72;81.34
60920;BME280;59039;52.108;19.942;2022-11-11T10:48:25;101908.09;;;10.73;81.13
60920;BME280;59039;52.108;19.942;2022-11-11T10:50:56;101906.75;;;10.74;81.19
60920;BME280;59039;52.108;19.942;2022-11-11T10:53:36;101913.38;;;10.75;81.01
60920;BME280;59039;52.108;19.942;2022-11-11T10:56:15;101910.86;;;10.77;81.05
60920;BME280;59039;52.108;19.942;2022-11-11T10:58:57;101904.94;;;10.79;80.86
60920;BME280;59039;52.108;19.942;2022-11-11T11:01:33;101899.94;;;10.80;80.88
60920;BME280;59039;52.108;19.942;2022-11-11T11:04:16;101899.20;;;10.82;81.02
60920;BME280;59039;52.108;19.942;2022-11-11T11:06:47;101898.54;;;10.84;80.58
60920;BME280;59039;52.108;19.942;2022-11-11T11:09:23;101900.23;;;10.85;80.81
60920;BME280;59039;52.108;19.942;2022-11-11T11:12:13;101899.14;;;10.88;80.67
60920;BME280;59039;52.108;19.942;2022-11-11T11:14:44;101895.09;;;10.89;80.37
60920;BME280;59039;52.108;19.942;2022-11-11T11:17:16;101889.34;;;10.90;80.66
60920;BME280;59039;52.108;19.942;2022-11-11T11:19:44;101886.83;;;10.92;80.44
60920;BME280;59039;52.108;19.942;2022-11-11T11:22:09;101881.09;;;10.94;80.37
60920;BME280;59039;52.108;19.942;2022-11-11T11:24:35;101876.85;;;10.95;80.06
60920;BME280;59039;52.108;19.942;2022-11-11T11:27:06;101877.39;;;10.97;80.05
60920;BME280;59039;52.108;19.942;2022-11-11T11:29:37;101875.59;;;10.99;80.12
60920;BME280;59039;52.108;19.942;2022-11-11T11:32:34;101871.05;;;11.01;80.09
60920;BME280;59039;52.108;19.942;2022-11-11T11:34:59;101871.26;;;11.03;80.18
60920;BME280;59039;52.108;19.942;2022-11-11T11:37:25;101871.30;;;11.05;80.18
60920;BME280;59039;52.108;19.942;2022-11-11T11:40:02;101866.68;;;11.06;79.92
60920;BME280;59039;52.108;19.942;2022-11-11T11:44:55;101870.69;;;11.08;80.01
60920;BME280;59039;52.108;19.942;2022-11-11T11:47:39;101869.38;;;11.08;79.84
60920;BME280;59039;52.108;19.942;2022-11-11T11:55:58;101862.33;;;11.11;79.36
60920;BME280;59039;52.108;19.942;2022-11-11T12:01:28;101857.69;;;11.12;79.47
60920;BME280;59039;52.108;19.942;2022-11-11T12:04:20;101861.15;;;11.12;79.56
60920;BME280;59039;52.108;19.942;2022-11-11T12:07:11;101864.79;;;11.12;78.99
60920;BME280;59039;52.108;19.942;2022-11-11T12:10:05;101863.27;;;11.12;79.31
60920;BME280;59039;52.108;19.942;2022-11-11T12:12:43;101863.28;;;11.12;79.00
60920;BME280;59039;52.108;19.942;2022-11-11T12:15:20;101863.77;;;11.13;79.22
60920;BME280;59039;52.108;19.942;2022-11-11T12:20:44;101870.99;;;11.13;78.91
60920;BME280;59039;52.108;19.942;2022-11-11T12:26:14;101871.17;;;11.14;78.80
60920;BME280;59039;52.108;19.942;2022-11-11T12:37:02;101881.30;;;11.14;78.45
60920;BME280;59039;52.108;19.942;2022-11-11T12:45:17;101885.27;;;11.14;78.43
60920;BME280;59039;52.108;19.942;2022-11-11T12:48:09;101889.66;;;11.14;78.34
60920;BME280;59039;52.108;19.942;2022-11-11T12:50:53;101892.55;;;11.14;78.64
60920;BME280;59039;52.108;19.942;2022-11-11T12:53:44;101895.13;;;11.13;78.05
60920;BME280;59039;52.108;19.942;2022-11-11T12:59:18;101899.77;;;11.15;78.35
60920;BME280;59039;52.108;19.942;2022-11-11T13:05:12;101902.48;;;11.14;78.08
60920;BME280;59039;52.108;19.942;2022-11-11T13:08:07;101901.58;;;11.14;77.96
60920;BME280;59039;52.108;19.942;2022-11-11T13:15:55;101890.52;;;11.14;77.90
60920;BME280;59039;52.108;19.942;2022-11-11T13:18:45;101889.88;;;11.13;77.83
60920;BME280;59039;52.108;19.942;2022-11-11T13:21:17;101884.49;;;11.13;77.96
60920;BME280;59039;52.108;19.942;2022-11-11T13:23:43;101885.13;;;11.12;77.92
60920;BME280;59039;52.108;19.942;2022-11-11T13:26:23;101884.99;;;11.11;77.86
60920;BME280;59039;52.108;19.942;2022-11-11T13:29:00;101888.58;;;11.09;77.64
60920;BME280;59039;52.108;19.942;2022-11-11T13:31:35;101893.11;;;11.09;77.61
60920;BME280;59039;52.108;19.942;2022-11-11T13:34:03;101893.34;;;11.08;78.01
60920;BME280;59039;52.108;19.942;2022-11-11T13:36:40;101893.75;;;11.08;77.71
60920;BME280;59039;52.108;19.942;2022-11-11T13:39:24;101897.02;;;11.08;77.63
60920;BME280;59039;52.108;19.942;2022-11-11T13:41:53;101890.83;;;11.08;77.76
60920;BME280;59039;52.108;19.942;2022-11-11T13:44:34;101889.02;;;11.08;77.74
60920;BME280;59039;52.108;19.942;2022-11-11T13:47:03;101884.33;;;11.07;77.81